createdAt,value
2018-07-22T00:00:22.613Z,19.10
2018-07-22T00:02:26.605Z,18.80
2018-07-22T00:04:30.597Z,19.00
2018-07-22T00:06:34.595Z,19.00
2018-07-22T00:08:38.665Z,18.90
2018-07-22T00:10:42.855Z,18.70
2018-07-22T00:12:46.821Z,18.80
2018-07-22T00:14:50.830Z,18.90
2018-07-22T00:16:55.049Z,18.80
2018-07-22T00:19:21.064Z,18.70
2018-07-22T00:21:25.979Z,18.80
2018-07-22T00:23:30.978Z,18.70
2018-07-22T00:28:03.475Z,18.50
2018-07-22T00:30:13.584Z,18.60
2018-07-22T00:32:17.966Z,18.50
2018-07-22T00:34:53.001Z,18.60
2018-07-22T00:36:59.166Z,18.60
2018-07-22T00:39:06.675Z,18.70
2018-07-22T00:41:10.646Z,18.50
2018-07-22T00:43:14.459Z,18.50
2018-07-22T00:45:18.351Z,18.40
2018-07-22T00:47:22.128Z,18.40
2018-07-22T00:49:36.220Z,18.40
2018-07-22T00:51:49.673Z,18.40
2018-07-22T00:53:53.550Z,18.50
2018-07-22T00:55:57.431Z,18.40
2018-07-22T00:58:01.373Z,18.40
2018-07-22T01:00:06.288Z,18.30
2018-07-22T01:02:10.030Z,18.40
2018-07-22T01:04:13.791Z,18.50
2018-07-22T01:06:18.890Z,18.30
2018-07-22T01:08:22.810Z,18.20
2018-07-22T01:10:26.620Z,18.40
2018-07-22T01:12:44.339Z,18.40
2018-07-22T01:14:48.216Z,18.20
2018-07-22T01:16:52.086Z,18.00
2018-07-22T01:18:56.829Z,18.10
2018-07-22T01:21:00.871Z,18.10
2018-07-22T01:23:07.761Z,18.00
2018-07-22T01:25:28.317Z,18.00
2018-07-22T01:27:32.597Z,18.10
2018-07-22T01:29:44.239Z,17.90
2018-07-22T01:31:54.114Z,18.00
2018-07-22T01:34:02.172Z,17.90
2018-07-22T01:36:08.926Z,18.00
2018-07-22T01:38:13.738Z,17.90
2018-07-22T01:40:17.602Z,17.80
2018-07-22T01:42:21.476Z,17.80
2018-07-22T01:44:27.729Z,17.80
2018-07-22T01:46:34.833Z,17.70
2018-07-22T01:48:42.738Z,17.70
2018-07-22T01:50:46.683Z,17.80
2018-07-22T01:52:56.967Z,17.90
2018-07-22T01:55:01.104Z,17.80
2018-07-22T01:57:05.022Z,17.80
2018-07-22T01:59:08.991Z,17.60
2018-07-22T02:01:12.818Z,17.50
2018-07-22T02:03:34.723Z,17.60
2018-07-22T02:05:38.711Z,17.70
2018-07-22T02:07:42.523Z,17.50
2018-07-22T02:09:46.416Z,17.70
2018-07-22T02:11:50.364Z,17.70
2018-07-22T02:13:54.299Z,17.70
2018-07-22T02:15:58.181Z,17.70
2018-07-22T02:18:02.256Z,17.60
2018-07-22T02:20:06.132Z,17.60
2018-07-22T02:22:11.862Z,17.60
2018-07-22T02:24:21.896Z,17.60
2018-07-22T02:26:28.682Z,17.50
2018-07-22T02:28:34.037Z,17.40
2018-07-22T02:30:39.051Z,17.40
2018-07-22T02:32:44.473Z,17.30
2018-07-22T02:34:48.423Z,17.30
2018-07-22T02:36:52.228Z,17.30
2018-07-22T02:38:56.128Z,17.20
2018-07-22T02:41:00.016Z,17.00
2018-07-22T02:43:03.890Z,17.10
2018-07-22T02:45:07.761Z,17.20
2018-07-22T02:47:11.613Z,17.20
2018-07-22T02:49:15.568Z,17.20
2018-07-22T02:51:19.500Z,17.30
2018-07-22T02:53:24.035Z,17.10
2018-07-22T02:55:44.733Z,17.20
2018-07-22T02:57:48.750Z,17.20
2018-07-22T02:59:52.565Z,17.20
2018-07-22T03:01:56.472Z,17.30
2018-07-22T03:04:00.307Z,17.30
2018-07-22T03:06:04.233Z,17.10
2018-07-22T03:08:08.114Z,17.00
2018-07-22T03:10:12.050Z,17.00
2018-07-22T03:12:15.903Z,17.20
2018-07-22T03:14:19.849Z,17.20
2018-07-22T03:16:23.857Z,17.20
2018-07-22T03:18:28.148Z,17.30
2018-07-22T03:20:32.419Z,17.20
2018-07-22T03:22:37.045Z,17.20
2018-07-22T03:24:42.271Z,17.00
2018-07-22T03:29:21.723Z,17.00
2018-07-22T03:31:26.828Z,17.00
2018-07-22T03:33:30.961Z,16.80
2018-07-22T03:35:35.881Z,16.90
2018-07-22T03:37:40.197Z,17.00
2018-07-22T03:39:44.049Z,16.90
2018-07-22T03:41:47.956Z,16.80
2018-07-22T03:43:51.828Z,16.90
2018-07-22T03:45:55.725Z,16.90
2018-07-22T03:47:59.585Z,16.90
2018-07-22T03:50:03.606Z,16.90
2018-07-22T03:52:07.409Z,16.80
2018-07-22T03:54:11.366Z,16.90
2018-07-22T03:56:15.260Z,16.80
2018-07-22T03:58:19.342Z,16.80
2018-07-22T04:00:23.186Z,16.80
2018-07-22T04:02:27.258Z,16.80
2018-07-22T04:04:31.129Z,16.80
2018-07-22T04:06:35.146Z,16.90
2018-07-22T04:08:39.009Z,16.90
2018-07-22T04:10:42.948Z,17.00
2018-07-22T04:12:46.992Z,17.10
2018-07-22T04:14:50.943Z,17.20
2018-07-22T04:16:54.787Z,17.20
2018-07-22T04:18:58.917Z,17.10
2018-07-22T04:21:02.762Z,17.20
2018-07-22T04:23:07.059Z,17.10
2018-07-22T04:25:11.060Z,17.20
2018-07-22T04:27:14.980Z,17.20
2018-07-22T04:29:18.794Z,17.20
2018-07-22T04:31:22.982Z,17.20
2018-07-22T04:33:28.262Z,17.30
2018-07-22T04:35:34.785Z,17.30
2018-07-22T04:37:39.029Z,17.20
2018-07-22T04:39:42.883Z,17.30
2018-07-22T04:41:46.847Z,17.30
2018-07-22T04:43:50.844Z,17.30
2018-07-22T04:47:58.624Z,17.30
2018-07-22T04:50:02.756Z,17.30
2018-07-22T04:52:06.968Z,17.30
2018-07-22T04:54:10.909Z,17.20
2018-07-22T04:56:14.924Z,17.20
2018-07-22T04:58:18.948Z,17.40
2018-07-22T05:00:22.771Z,17.30
2018-07-22T05:02:26.693Z,17.50
2018-07-22T05:04:30.555Z,17.70
2018-07-22T05:06:34.520Z,17.70
2018-07-22T05:08:38.379Z,17.80
2018-07-22T05:10:42.315Z,17.80
2018-07-22T05:12:46.155Z,17.80
2018-07-22T05:14:50.134Z,17.90
2018-07-22T05:16:54.021Z,17.90
2018-07-22T05:18:58.189Z,18.00
2018-07-22T05:21:02.280Z,18.10
2018-07-22T05:23:06.295Z,18.00
2018-07-22T05:25:10.152Z,18.10
2018-07-22T05:27:14.372Z,18.00
2018-07-22T05:29:18.172Z,18.00
2018-07-22T05:31:22.244Z,18.00
2018-07-22T05:33:26.041Z,18.00
2018-07-22T05:35:30.036Z,18.20
2018-07-22T05:37:33.889Z,18.40
2018-07-22T05:39:37.836Z,18.30
2018-07-22T05:41:42.396Z,18.40
2018-07-22T05:43:46.311Z,18.50
2018-07-22T05:45:50.339Z,18.80
2018-07-22T05:47:54.263Z,18.90
2018-07-22T05:49:58.088Z,19.00
2018-07-22T05:52:02.328Z,19.30
2018-07-22T05:54:06.398Z,19.40
2018-07-22T05:56:10.622Z,19.40
2018-07-22T05:58:14.503Z,19.40
2018-07-22T06:00:35.001Z,19.60
2018-07-22T06:05:01.301Z,20.00
2018-07-22T06:07:05.217Z,20.10
2018-07-22T06:09:10.644Z,20.00
2018-07-22T06:11:14.722Z,20.20
2018-07-22T06:13:18.505Z,20.10
2018-07-22T06:15:22.437Z,20.40
2018-07-22T06:17:26.310Z,20.40
2018-07-22T06:19:30.415Z,20.40
2018-07-22T06:21:34.313Z,20.40
2018-07-22T06:25:41.770Z,20.50
2018-07-22T06:27:45.733Z,20.60
2018-07-22T06:29:49.544Z,21.00
2018-07-22T06:31:53.592Z,21.10
2018-07-22T06:33:57.488Z,21.30
2018-07-22T06:36:01.967Z,21.20
2018-07-22T06:38:06.347Z,21.30
2018-07-22T06:40:10.269Z,21.40
2018-07-22T06:42:14.185Z,21.60
2018-07-22T06:44:18.428Z,21.80
2018-07-22T06:46:22.445Z,21.60
2018-07-22T06:48:26.736Z,21.70
2018-07-22T06:50:30.657Z,22.10
2018-07-22T06:52:34.809Z,22.40
2018-07-22T06:54:38.872Z,22.50
2018-07-22T06:56:42.837Z,22.50
2018-07-22T06:58:46.740Z,22.30
2018-07-22T07:00:50.821Z,22.70
2018-07-22T07:02:54.680Z,22.60
2018-07-22T07:04:58.651Z,22.20
2018-07-22T07:07:02.589Z,22.30
2018-07-22T07:09:09.691Z,22.70
2018-07-22T07:11:13.654Z,23.10
2018-07-22T07:13:17.439Z,23.00
2018-07-22T07:15:21.513Z,22.90
2018-07-22T07:17:25.425Z,23.40
2018-07-22T07:19:29.310Z,23.60
2018-07-22T07:21:33.135Z,23.60
2018-07-22T07:23:37.225Z,23.80
2018-07-22T07:25:41.051Z,24.00
2018-07-22T07:27:44.998Z,24.10
2018-07-22T07:29:48.816Z,24.10
2018-07-22T07:31:52.753Z,24.50
2018-07-22T07:33:56.620Z,25.00
2018-07-22T07:36:00.566Z,24.90
2018-07-22T07:38:04.773Z,24.80
2018-07-22T07:40:08.792Z,24.90
2018-07-22T07:42:12.742Z,24.90
2018-07-22T07:44:16.737Z,24.80
2018-07-22T07:46:20.576Z,24.40
2018-07-22T07:48:24.510Z,24.70
2018-07-22T07:50:28.746Z,24.90
2018-07-22T07:52:32.643Z,24.90
2018-07-22T07:54:36.531Z,25.60
2018-07-22T07:56:40.508Z,25.70
2018-07-22T07:58:44.946Z,26.10
2018-07-22T08:00:48.879Z,26.10
2018-07-22T08:02:52.917Z,26.10
2018-07-22T08:04:56.889Z,26.60
2018-07-22T08:07:00.801Z,26.70
2018-07-22T08:09:06.809Z,26.70
2018-07-22T08:11:10.751Z,26.30
2018-07-22T08:13:14.883Z,26.10
2018-07-22T08:15:18.850Z,25.80
2018-07-22T08:17:22.722Z,25.90
2018-07-22T08:19:26.757Z,26.10
2018-07-22T08:21:30.670Z,26.20
2018-07-22T08:23:34.593Z,26.30
2018-07-22T08:25:38.729Z,26.20
2018-07-22T08:27:44.754Z,26.10
2018-07-22T08:29:50.897Z,26.70
2018-07-22T08:31:55.136Z,26.70
2018-07-22T08:33:59.017Z,27.00
2018-07-22T08:36:02.913Z,27.00
2018-07-22T08:38:07.010Z,27.20
2018-07-22T08:40:11.126Z,27.50
2018-07-22T08:42:15.264Z,27.70
2018-07-22T08:44:19.663Z,28.10
2018-07-22T08:46:23.720Z,27.80
2018-07-22T08:48:27.816Z,27.40
2018-07-22T08:50:31.722Z,27.60
2018-07-22T08:52:35.716Z,28.00
2018-07-22T08:54:39.515Z,28.30
2018-07-22T08:56:43.474Z,28.20
2018-07-22T08:58:47.315Z,28.40
2018-07-22T09:00:51.235Z,28.50
2018-07-22T09:02:55.445Z,28.30
2018-07-22T09:04:59.393Z,28.40
2018-07-22T09:07:03.392Z,28.80
2018-07-22T09:09:08.445Z,29.10
2018-07-22T09:11:12.450Z,29.10
2018-07-22T09:13:16.385Z,28.80
2018-07-22T09:15:20.538Z,28.50
2018-07-22T09:17:24.357Z,28.70
2018-07-22T09:19:33.765Z,29.10
2018-07-22T09:21:38.803Z,29.40
2018-07-22T09:23:43.080Z,29.20
2018-07-22T09:25:46.891Z,29.00
2018-07-22T09:27:50.885Z,29.50
2018-07-22T09:29:54.760Z,29.30
2018-07-22T09:31:58.739Z,28.80
2018-07-22T09:34:02.782Z,29.50
2018-07-22T09:36:06.887Z,29.30
2018-07-22T09:38:10.719Z,29.20
2018-07-22T09:40:14.661Z,29.00
2018-07-22T09:42:19.140Z,29.10
2018-07-22T09:44:23.384Z,29.20
2018-07-22T09:46:27.622Z,29.60
2018-07-22T09:48:31.781Z,29.40
2018-07-22T09:50:35.975Z,29.10
2018-07-22T09:52:40.408Z,29.00
2018-07-22T09:54:44.704Z,28.60
2018-07-22T09:56:49.112Z,28.50
2018-07-22T09:58:53.399Z,29.00
2018-07-22T10:00:59.034Z,29.10
2018-07-22T10:03:04.173Z,29.10
2018-07-22T10:05:08.687Z,28.20
2018-07-22T10:07:12.856Z,28.90
2018-07-22T10:09:16.940Z,29.30
2018-07-22T10:11:21.024Z,28.80
2018-07-22T10:13:25.359Z,28.80
2018-07-22T10:15:29.769Z,29.00
2018-07-22T10:17:34.226Z,28.80
2018-07-22T10:19:38.287Z,29.00
2018-07-22T10:21:42.589Z,29.20
2018-07-22T10:23:46.675Z,29.40
2018-07-22T10:25:50.724Z,29.20
2018-07-22T10:27:55.295Z,28.80
2018-07-22T10:29:59.391Z,28.50
2018-07-22T10:32:03.452Z,29.10
2018-07-22T10:34:07.928Z,29.00
2018-07-22T10:36:11.795Z,28.70
2018-07-22T10:38:15.751Z,28.70
2018-07-22T10:40:19.650Z,29.10
2018-07-22T10:42:23.547Z,29.10
2018-07-22T10:44:27.495Z,28.90
2018-07-22T10:46:31.561Z,29.00
2018-07-22T10:48:36.761Z,29.00
2018-07-22T10:50:41.012Z,29.10
2018-07-22T10:52:45.330Z,29.50
2018-07-22T10:54:49.596Z,29.80
2018-07-22T10:56:55.069Z,30.00
2018-07-22T11:01:02.991Z,30.10
2018-07-22T11:03:07.831Z,29.60
2018-07-22T11:05:12.051Z,29.50
2018-07-22T11:07:16.349Z,29.30
2018-07-22T11:09:27.634Z,29.60
2018-07-22T11:11:32.132Z,29.60
2018-07-22T11:13:36.703Z,29.50
2018-07-22T11:15:40.959Z,29.60
2018-07-22T11:17:44.911Z,29.50
2018-07-22T11:19:48.971Z,29.80
2018-07-22T11:21:53.178Z,29.90
2018-07-22T11:26:01.440Z,30.00
2018-07-22T11:28:06.162Z,29.60
2018-07-22T11:30:12.608Z,28.60
2018-07-22T11:32:16.681Z,28.40
2018-07-22T11:34:20.735Z,27.70
2018-07-22T11:36:25.064Z,27.60
2018-07-22T11:38:29.243Z,28.00
2018-07-22T11:40:33.400Z,28.50
2018-07-22T11:42:37.821Z,29.20
2018-07-22T11:44:42.064Z,28.90
2018-07-22T11:48:50.950Z,27.90
2018-07-22T11:50:55.462Z,27.50
2018-07-22T11:53:00.306Z,27.60
2018-07-22T11:55:05.745Z,28.40
2018-07-22T11:57:09.817Z,28.90
2018-07-22T11:59:13.830Z,29.30
2018-07-22T12:01:18.067Z,29.20
2018-07-22T12:03:22.231Z,28.80
2018-07-22T12:05:26.451Z,28.00
2018-07-22T12:07:30.514Z,28.40
2018-07-22T12:09:34.687Z,28.80
2018-07-22T12:11:38.903Z,29.00
2018-07-22T12:15:46.816Z,30.00
2018-07-22T12:17:51.103Z,29.00
2018-07-22T12:19:55.349Z,28.70
2018-07-22T12:26:06.875Z,29.60
2018-07-22T12:28:10.723Z,29.80
2018-07-22T12:30:14.927Z,29.30
2018-07-22T12:32:18.736Z,29.70
2018-07-22T12:34:22.709Z,29.70
2018-07-22T12:40:33.502Z,30.10
2018-07-22T12:42:37.579Z,30.10
2018-07-22T12:44:41.594Z,30.00
2018-07-22T12:46:46.052Z,30.30
2018-07-22T12:48:50.280Z,29.70
2018-07-22T12:50:54.526Z,29.90
2018-07-22T12:52:58.622Z,29.80
2018-07-22T12:55:02.888Z,29.90
2018-07-22T12:57:06.696Z,29.90
2018-07-22T12:59:10.655Z,30.00
2018-07-22T13:01:14.505Z,30.00
2018-07-22T13:03:18.503Z,29.20
2018-07-22T13:05:22.624Z,29.10
2018-07-22T13:07:26.758Z,28.60
2018-07-22T13:09:30.833Z,28.10
2018-07-22T13:11:34.742Z,27.90
2018-07-22T13:13:38.613Z,27.40
2018-07-22T13:15:42.506Z,26.90
2018-07-22T13:17:46.265Z,26.90
2018-07-22T13:19:50.496Z,27.00
2018-07-22T13:21:54.380Z,26.80
2018-07-22T13:23:58.236Z,26.80
2018-07-22T13:30:10.708Z,26.80
2018-07-22T13:32:14.829Z,26.90
2018-07-22T13:36:22.479Z,27.40
2018-07-22T13:38:26.523Z,27.40
2018-07-22T13:40:30.466Z,26.80
2018-07-22T13:42:34.593Z,27.00
2018-07-22T13:46:42.045Z,26.70
2018-07-22T13:48:45.972Z,26.80
2018-07-22T13:50:49.866Z,26.90
2018-07-22T13:54:57.252Z,27.20
2018-07-22T13:57:01.181Z,27.60
2018-07-22T13:59:06.578Z,28.10
2018-07-22T14:03:14.016Z,27.30
2018-07-22T14:05:19.018Z,27.30
2018-07-22T14:07:23.019Z,27.60
2018-07-22T14:09:26.949Z,27.40
2018-07-22T14:11:30.946Z,26.70
2018-07-22T14:13:34.935Z,26.90
2018-07-22T14:17:43.167Z,26.40
2018-07-22T14:19:47.177Z,26.60
2018-07-22T14:21:51.103Z,26.50
2018-07-22T14:23:55.082Z,26.90
2018-07-22T14:25:59.103Z,26.80
2018-07-22T14:28:03.078Z,27.00
2018-07-22T14:30:11.834Z,27.10
2018-07-22T14:32:16.003Z,27.10
2018-07-22T14:34:19.933Z,26.90
2018-07-22T14:38:27.272Z,27.10
2018-07-22T14:42:34.702Z,26.90
2018-07-22T14:44:38.831Z,26.70
2018-07-22T14:46:42.721Z,26.80
2018-07-22T14:48:46.626Z,27.00
2018-07-22T14:50:50.716Z,26.90
2018-07-22T14:52:54.984Z,26.80
2018-07-22T14:59:07.338Z,26.90
2018-07-22T15:01:13.359Z,26.70
2018-07-22T15:09:29.112Z,26.80
2018-07-22T15:11:33.090Z,27.30
2018-07-22T15:13:37.291Z,27.00
2018-07-22T15:15:41.808Z,26.90
2018-07-22T15:17:46.499Z,26.80
2018-07-22T15:19:50.403Z,27.00
2018-07-22T15:21:54.480Z,27.20
2018-07-22T15:23:58.862Z,27.30
2018-07-22T15:28:06.557Z,27.60
2018-07-22T15:30:10.529Z,27.60
2018-07-22T15:32:14.413Z,27.80
2018-07-22T15:34:18.326Z,27.80
2018-07-22T15:42:33.416Z,27.10
2018-07-22T15:44:37.294Z,27.40
2018-07-22T15:46:41.230Z,27.20
2018-07-22T15:48:45.327Z,26.90
2018-07-22T15:50:49.189Z,26.80
2018-07-22T15:52:53.196Z,26.80
2018-07-22T15:54:57.067Z,26.70
2018-07-22T15:57:00.995Z,26.70
2018-07-22T15:59:04.966Z,26.70
2018-07-22T16:01:09.025Z,26.70
2018-07-22T16:03:12.821Z,26.70
2018-07-22T16:05:16.763Z,26.60
2018-07-22T16:07:20.591Z,26.60
2018-07-22T16:09:24.497Z,26.80
2018-07-22T16:11:28.419Z,27.00
2018-07-22T16:13:32.349Z,27.10
2018-07-22T16:15:36.161Z,27.10
2018-07-22T16:17:40.152Z,27.10
2018-07-22T16:19:44.214Z,26.90
2018-07-22T16:21:48.315Z,26.80
2018-07-22T16:23:52.210Z,26.80
2018-07-22T16:25:56.053Z,26.60
2018-07-22T16:27:59.898Z,26.30
2018-07-22T16:30:03.959Z,26.30
2018-07-22T16:32:07.925Z,26.20
2018-07-22T16:34:12.074Z,26.20
2018-07-22T16:36:15.932Z,26.10
2018-07-22T16:38:19.870Z,26.00
2018-07-22T16:40:23.786Z,26.30
2018-07-22T16:42:27.724Z,26.40
2018-07-22T16:44:31.568Z,26.40
2018-07-22T16:46:35.535Z,26.30
2018-07-22T16:48:39.363Z,26.30
2018-07-22T16:50:43.319Z,26.20
2018-07-22T16:52:47.312Z,26.20
2018-07-22T16:54:51.214Z,26.30
2018-07-22T16:56:55.078Z,26.40
2018-07-22T16:58:59.016Z,26.50
2018-07-22T17:01:02.928Z,26.50
2018-07-22T17:03:06.951Z,26.60
2018-07-22T17:05:10.791Z,26.50
2018-07-22T17:07:14.718Z,26.50
2018-07-22T17:09:18.848Z,26.40
2018-07-22T17:11:22.740Z,26.40
2018-07-22T17:13:26.853Z,26.40
2018-07-22T17:15:30.807Z,26.10
2018-07-22T17:17:34.618Z,26.40
2018-07-22T17:19:38.557Z,26.30
2018-07-22T17:21:42.356Z,26.30
2018-07-22T17:23:46.675Z,26.30
2018-07-22T17:25:50.840Z,26.30
2018-07-22T17:27:54.731Z,26.20
2018-07-22T17:29:58.546Z,26.10
2018-07-22T17:32:02.423Z,26.10
2018-07-22T17:34:06.340Z,25.40
2018-07-22T17:36:10.515Z,26.10
2018-07-22T17:38:14.324Z,26.10
2018-07-22T17:40:18.231Z,26.00
2018-07-22T17:42:22.266Z,26.00
2018-07-22T17:44:26.315Z,26.00
2018-07-22T17:46:30.265Z,26.00
2018-07-22T17:48:34.145Z,26.00
2018-07-22T17:50:37.953Z,25.90
2018-07-22T17:52:41.877Z,26.10
2018-07-22T17:54:45.693Z,26.10
2018-07-22T17:56:49.612Z,26.10
2018-07-22T17:58:53.430Z,26.20
2018-07-22T18:03:24.467Z,26.30
2018-07-22T18:05:28.445Z,26.40
2018-07-22T18:07:32.308Z,26.10
2018-07-22T18:09:36.168Z,26.20
2018-07-22T18:11:40.265Z,25.80
2018-07-22T18:15:47.653Z,24.80
2018-07-22T18:17:51.560Z,25.50
2018-07-22T18:24:02.418Z,25.30
2018-07-22T18:26:06.408Z,25.20
2018-07-22T18:28:10.493Z,25.20
2018-07-22T18:30:14.461Z,25.10
2018-07-22T18:34:21.931Z,24.90
2018-07-22T18:38:29.563Z,25.00
2018-07-22T18:40:33.989Z,24.90
2018-07-22T18:42:37.946Z,25.20
2018-07-22T18:44:42.049Z,24.80
2018-07-22T18:48:49.506Z,24.50
2018-07-22T18:50:53.541Z,24.60
2018-07-22T18:52:57.438Z,24.50
2018-07-22T18:55:01.513Z,24.40
2018-07-22T18:59:10.412Z,24.40
2018-07-22T19:01:14.494Z,24.30
2018-07-22T19:03:18.520Z,24.30
2018-07-22T19:05:22.468Z,24.20
2018-07-22T19:09:30.676Z,24.20
2018-07-22T19:11:34.562Z,24.10
2018-07-22T19:15:42.185Z,23.80
2018-07-22T19:17:46.101Z,23.90
2018-07-22T19:19:50.203Z,23.90
2018-07-22T19:21:54.168Z,23.80
2018-07-22T19:23:58.019Z,23.50
2018-07-22T19:26:02.192Z,23.40
2018-07-22T19:28:06.154Z,23.30
2018-07-22T19:30:10.146Z,23.30
2018-07-22T19:38:24.562Z,23.00
2018-07-22T19:40:28.497Z,23.00
2018-07-22T19:48:43.077Z,22.70
2018-07-22T19:50:47.041Z,22.60
2018-07-22T19:59:02.592Z,22.30
2018-07-22T20:01:06.591Z,22.40
2018-07-22T20:03:10.661Z,22.90
2018-07-22T20:05:14.608Z,22.50
2018-07-22T20:07:18.758Z,22.50
2018-07-22T20:15:34.895Z,22.10
2018-07-22T20:17:39.085Z,21.70
2018-07-22T20:21:47.041Z,22.40
2018-07-22T20:23:51.314Z,22.50
2018-07-22T20:25:55.261Z,22.20
2018-07-22T20:34:11.010Z,21.80
2018-07-22T20:36:15.983Z,21.50
2018-07-22T20:38:20.226Z,21.80
2018-07-22T20:44:31.634Z,21.70
2018-07-22T20:48:39.162Z,21.40
2018-07-22T20:50:43.071Z,21.30
2018-07-22T20:52:48.126Z,21.30
2018-07-22T20:54:52.463Z,21.50
2018-07-22T20:56:56.237Z,21.30
2018-07-22T20:59:00.225Z,21.20
2018-07-22T21:01:04.076Z,21.20
2018-07-22T21:03:07.951Z,21.20
2018-07-22T21:05:11.748Z,21.10
2018-07-22T21:07:15.741Z,21.10
2018-07-22T21:11:23.192Z,21.10
2018-07-22T21:15:31.559Z,20.90
2018-07-22T21:17:35.635Z,20.90
2018-07-22T21:19:39.592Z,20.80
2018-07-22T21:25:50.437Z,20.70
2018-07-22T21:27:54.453Z,20.70
2018-07-22T21:29:58.620Z,20.60
2018-07-22T21:32:02.480Z,20.60
2018-07-22T21:34:06.350Z,20.60
2018-07-22T21:36:10.308Z,20.50
2018-07-22T21:38:14.094Z,20.60
2018-07-22T21:40:18.185Z,20.50
2018-07-22T21:42:21.999Z,20.60
2018-07-22T21:44:25.909Z,20.40
2018-07-22T21:48:33.469Z,20.50
2018-07-22T21:50:37.279Z,20.70
2018-07-22T21:54:45.020Z,20.30
2018-07-22T21:56:48.992Z,20.30
2018-07-22T22:00:56.286Z,20.20
2018-07-22T22:03:01.389Z,20.20
2018-07-22T22:07:08.864Z,20.20
2018-07-22T22:09:12.790Z,20.00
2018-07-22T22:11:16.551Z,20.40
2018-07-22T22:13:20.509Z,19.70
2018-07-22T22:15:31.613Z,20.30
2018-07-22T22:17:35.517Z,20.10
2018-07-22T22:19:39.288Z,20.40
2018-07-22T22:23:46.793Z,19.70
2018-07-22T22:25:50.650Z,19.90
2018-07-22T22:27:54.576Z,20.20
2018-07-22T22:29:58.453Z,20.30
2018-07-22T22:32:02.265Z,20.00
2018-07-22T22:34:06.250Z,20.50
2018-07-22T22:36:10.105Z,19.60
2018-07-22T22:38:14.025Z,20.10
2018-07-22T22:42:21.283Z,19.60
2018-07-22T22:44:25.213Z,19.80
2018-07-22T22:46:29.127Z,19.70
2018-07-22T22:48:33.078Z,19.80
2018-07-22T22:50:37.030Z,19.70
2018-07-22T22:52:40.912Z,19.60
2018-07-22T22:54:51.229Z,19.70
2018-07-22T22:56:55.153Z,19.80
2018-07-22T22:59:10.134Z,20.20
2018-07-22T23:01:14.154Z,19.80
2018-07-22T23:05:21.633Z,19.60
2018-07-22T23:07:25.458Z,19.20
2018-07-22T23:09:29.367Z,19.30
2018-07-22T23:11:33.169Z,19.40
2018-07-22T23:13:37.098Z,19.70
2018-07-22T23:15:40.879Z,19.70
2018-07-22T23:17:44.977Z,19.30
2018-07-22T23:19:48.804Z,19.30
2018-07-22T23:21:52.667Z,19.30
2018-07-22T23:23:56.537Z,19.30
2018-07-22T23:26:00.485Z,19.30
2018-07-22T23:28:04.315Z,19.30
2018-07-22T23:30:08.234Z,19.30
2018-07-22T23:32:12.400Z,19.30
2018-07-22T23:34:16.308Z,19.00
2018-07-22T23:36:20.151Z,19.20
2018-07-22T23:38:24.053Z,19.40
2018-07-22T23:40:27.866Z,19.20
2018-07-22T23:44:35.341Z,19.00
2018-07-22T23:46:39.422Z,18.50
2018-07-22T23:48:43.220Z,18.70
2018-07-22T23:50:47.159Z,19.60
2018-07-22T23:52:51.024Z,18.80
2018-07-22T23:54:54.929Z,18.80
2018-07-22T23:56:58.778Z,18.70
